Time;durP1;ratioP1;P1;durP2;ratioP2;P2;SDS_P1;SDS_P2;PMS_P1;PMS_P2;Temp;Humidity;BMP_temperature;BMP_pressure;BME280_temperature;BME280_humidity;BME280_pressure;Samples;Min_cycle;Max_cycle;Signal;HPM_P1;HPM_P2
2023/12/29 00:00:23;;;;;;;;;;;;;;;16.64;58.94;99600.38;2093573;28;19976;-63
2023/12/29 00:01:24;;;;;;;;;;;;;;;16.61;59.00;99601.56;2092156;28;20443;-64
2023/12/29 00:02:25;;;;;;;;;;;;;;;16.62;58.93;99599.72;2091226;28;19971;-63
2023/12/29 00:03:26;;;;;;;;;;;;;;;16.62;58.98;99602.38;2094767;28;19929;-63
2023/12/29 00:04:27;;;;;;;;;;;;;;;16.60;58.87;99591.84;2091368;28;20027;-62
2023/12/29 00:05:28;;;;;;;;;;;;;;;16.60;59.05;99594.50;2091595;28;19959;-64
2023/12/29 00:06:30;;;;;;;;;;;;;;;16.59;58.95;99592.84;2091583;28;19981;-63
2023/12/29 00:07:30;;;;;;;;;;;;;;;16.58;58.98;99599.22;2088662;28;20949;-64
2023/12/29 00:08:31;;;;;;;;;;;;;;;16.58;59.15;99596.53;2090096;28;19968;-63
2023/12/29 00:09:40;;;;;;;;;;;;;;;16.53;59.20;99597.03;2089482;28;19947;-63
2023/12/29 00:10:41;;;;;;;;;;;;;;;16.57;59.07;99597.53;2086758;28;19932;-64
2023/12/29 00:11:42;;;;;;;;;;;;;;;16.57;58.92;99597.53;2093276;28;19960;-61
2023/12/29 00:12:43;;;;;;;;;;;;;;;16.55;58.97;99594.19;2091803;28;19928;-64
2023/12/29 00:13:46;;;;;;;;;;;;;;;16.58;58.94;99595.72;2090288;28;20402;-62
2023/12/29 00:14:46;;;;;;;;;;;;;;;16.58;58.91;99591.19;2089021;28;21562;-61
2023/12/29 00:15:50;;;;;;;;;;;;;;;16.57;59.09;99592.16;2090963;28;20011;-63
2023/12/29 00:16:50;;;;;;;;;;;;;;;16.57;59.04;99589.50;2092977;28;20371;-63
2023/12/29 00:17:52;;;;;;;;;;;;;;;16.54;58.98;99592.50;2089769;28;19925;-64
2023/12/29 00:18:53;;;;;;;;;;;;;;;16.54;58.89;99592.50;2091281;28;20456;-61
2023/12/29 00:19:54;;;;;;;;;;;;;;;16.50;59.07;99591.19;2091523;28;19925;-64
2023/12/29 00:20:55;;;;;;;;;;;;;;;16.52;58.96;99586.50;2092028;28;19931;-63
2023/12/29 00:21:57;;;;;;;;;;;;;;;16.53;59.00;99590.84;2093739;28;20023;-63
2023/12/29 00:22:58;;;;;;;;;;;;;;;16.51;59.00;99588.31;2090454;28;19929;-63
2023/12/29 00:24:00;;;;;;;;;;;;;;;16.46;59.13;99595.19;2090247;28;19954;-64
2023/12/29 00:25:00;;;;;;;;;;;;;;;16.50;58.95;99591.19;2089736;28;20418;-62
2023/12/29 00:26:02;;;;;;;;;;;;;;;16.43;59.17;99590.16;2092121;28;19968;-63
2023/12/29 00:27:03;;;;;;;;;;;;;;;16.42;58.96;99586.66;2091700;28;19932;-63
2023/12/29 00:28:05;;;;;;;;;;;;;;;16.45;59.14;99582.81;2092986;28;19928;-64
2023/12/29 00:29:07;;;;;;;;;;;;;;;16.41;59.17;99585.00;2091400;28;20387;-63
2023/12/29 00:30:10;;;;;;;;;;;;;;;16.38;59.23;99579.09;2090963;28;20307;-62
2023/12/29 00:31:14;;;;;;;;;;;;;;;16.37;59.32;99569.41;2094034;28;20451;-62
2023/12/29 00:32:15;;;;;;;;;;;;;;;16.37;59.30;99572.09;2091619;28;19935;-63
2023/12/29 00:33:16;;;;;;;;;;;;;;;16.37;59.25;99570.25;2093652;28;19931;-61
2023/12/29 00:34:18;;;;;;;;;;;;;;;16.35;59.44;99571.41;2088758;28;20386;-63
2023/12/29 00:35:18;;;;;;;;;;;;;;;16.34;59.34;99570.56;2092349;28;19932;-64
2023/12/29 00:36:21;;;;;;;;;;;;;;;16.33;59.36;99573.44;2089538;28;20703;-63
2023/12/29 00:37:21;;;;;;;;;;;;;;;16.37;59.31;99572.91;2093507;28;19946;-62
2023/12/29 00:38:22;;;;;;;;;;;;;;;16.34;59.24;99570.56;2092684;28;19925;-62
2023/12/29 00:39:28;;;;;;;;;;;;;;;16.30;59.41;99569.25;2089407;28;19931;-62
2023/12/29 00:40:28;;;;;;;;;;;;;;;16.30;59.32;99577.28;2088577;28;19929;-62
2023/12/29 00:41:30;;;;;;;;;;;;;;;16.29;59.46;99565.72;2091236;28;19950;-63
2023/12/29 00:42:31;;;;;;;;;;;;;;;16.27;59.44;99565.06;2091798;28;20492;-61
2023/12/29 00:43:32;;;;;;;;;;;;;;;16.26;59.50;99567.88;2089135;28;20091;-63
2023/12/29 00:44:35;;;;;;;;;;;;;;;16.25;59.45;99561.69;2089260;28;19932;-63
2023/12/29 00:45:36;;;;;;;;;;;;;;;16.24;59.52;99564.53;2092108;28;19929;-64
2023/12/29 00:46:37;;;;;;;;;;;;;;;16.22;59.50;99556.69;2088516;28;20831;-63
2023/12/29 00:47:39;;;;;;;;;;;;;;;16.23;59.53;99557.50;2091000;28;19974;-63
2023/12/29 00:48:40;;;;;;;;;;;;;;;16.19;59.58;99557.00;2090631;28;19932;-64
2023/12/29 00:49:41;;;;;;;;;;;;;;;16.22;59.54;99555.84;2089186;28;20007;-63
2023/12/29 00:50:42;;;;;;;;;;;;;;;16.18;59.60;99555.31;2090523;28;19929;-62
2023/12/29 00:51:44;;;;;;;;;;;;;;;16.20;59.57;99557.84;2093041;28;19956;-63
2023/12/29 00:52:45;;;;;;;;;;;;;;;16.19;59.56;99564.22;2089719;28;21048;-63
2023/12/29 00:53:46;;;;;;;;;;;;;;;16.17;59.67;99556.34;2091273;28;20028;-62
2023/12/29 00:54:47;;;;;;;;;;;;;;;16.15;59.73;99555.66;2089884;28;19933;-63
2023/12/29 00:55:47;;;;;;;;;;;;;;;16.14;59.63;99561.19;2093871;28;19960;-63
2023/12/29 00:56:49;;;;;;;;;;;;;;;16.13;59.65;99552.34;2093582;28;20415;-64
2023/12/29 00:57:50;;;;;;;;;;;;;;;16.13;59.78;99554.16;2092827;28;19925;-64
2023/12/29 00:58:51;;;;;;;;;;;;;;;16.11;59.68;99558.84;2089607;28;20039;-64
2023/12/29 00:59:53;;;;;;;;;;;;;;;16.09;59.69;99556.31;2092099;28;19936;-64
2023/12/29 01:00:55;;;;;;;;;;;;;;;16.12;59.74;99556.00;2090793;28;19953;-63
2023/12/29 01:01:55;;;;;;;;;;;;;;;16.09;59.73;99553.66;2092583;28;19925;-62
2023/12/29 01:02:57;;;;;;;;;;;;;;;16.06;59.76;99559.31;2091051;28;20493;-64
2023/12/29 01:03:58;;;;;;;;;;;;;;;16.05;59.80;99555.81;2093374;28;19994;-63
2023/12/29 01:05:00;;;;;;;;;;;;;;;16.05;59.82;99558.50;2092497;28;20311;-63
2023/12/29 01:06:00;;;;;;;;;;;;;;;16.04;59.82;99559.47;2090810;28;20384;-62
2023/12/29 01:07:02;;;;;;;;;;;;;;;16.02;59.88;99563.34;2090706;28;19960;-63
2023/12/29 01:08:03;;;;;;;;;;;;;;;16.00;59.97;99560.81;2090392;28;19938;-63
2023/12/29 01:09:04;;;;;;;;;;;;;;;16.04;59.80;99569.34;2089462;28;19924;-62
2023/12/29 01:10:06;;;;;;;;;;;;;;;16.01;59.90;99562.50;2090878;28;19925;-62
2023/12/29 01:11:08;;;;;;;;;;;;;;;16.00;59.90;99560.81;2091510;28;19928;-64
2023/12/29 01:12:08;;;;;;;;;;;;;;;15.98;59.87;99556.63;2091467;28;19962;-63
2023/12/29 01:13:10;;;;;;;;;;;;;;;16.01;59.91;99567.00;2092569;28;19991;-64
2023/12/29 01:14:10;;;;;;;;;;;;;;;15.99;59.85;99571.69;2091028;28;19929;-63
2023/12/29 01:15:13;;;;;;;;;;;;;;;15.97;59.89;99568.34;2090482;28;20360;-63
2023/12/29 01:16:14;;;;;;;;;;;;;;;15.97;59.98;99573.69;2093869;28;19932;-64
2023/12/29 01:17:16;;;;;;;;;;;;;;;15.97;59.92;99568.34;2088738;28;20311;-63
2023/12/29 01:18:16;;;;;;;;;;;;;;;15.96;59.87;99564.81;2092508;28;19924;-62
2023/12/29 01:19:18;;;;;;;;;;;;;;;15.98;59.91;99564.66;2090787;28;19980;-62
2023/12/29 01:20:18;;;;;;;;;;;;;;;15.96;59.88;99566.66;2089387;28;19925;-63
2023/12/29 01:21:20;;;;;;;;;;;;;;;15.93;59.92;99565.16;2091431;28;20919;-63
2023/12/29 01:22:20;;;;;;;;;;;;;;;15.94;59.97;99572.19;2090670;28;20507;-62
2023/12/29 01:23:22;;;;;;;;;;;;;;;15.93;59.96;99565.16;2090921;28;20043;-62
2023/12/29 01:24:23;;;;;;;;;;;;;;;15.92;60.04;99568.00;2090056;28;20396;-63
2023/12/29 01:25:25;;;;;;;;;;;;;;;15.89;60.09;99561.13;2089169;28;19964;-64
2023/12/29 01:26:25;;;;;;;;;;;;;;;15.90;60.06;99564.66;2091843;28;19964;-62
2023/12/29 01:27:26;;;;;;;;;;;;;;;15.94;59.90;99568.69;2087754;28;19925;-63
2023/12/29 01:28:27;;;;;;;;;;;;;;;15.91;59.93;99568.97;2089929;28;19928;-61
2023/12/29 01:29:28;;;;;;;;;;;;;;;15.91;59.97;99558.28;2089407;28;22332;-63
2023/12/29 01:30:31;;;;;;;;;;;;;;;15.88;60.03;99563.97;2087847;28;19968;-62
2023/12/29 01:31:32;;;;;;;;;;;;;;;15.90;59.94;99567.31;2088132;28;19929;-63
2023/12/29 01:32:33;;;;;;;;;;;;;;;15.89;60.04;99565.66;2091781;28;19928;-62
2023/12/29 01:33:34;;;;;;;;;;;;;;;15.86;60.02;99564.13;2090976;28;20295;-62
2023/12/29 01:34:35;;;;;;;;;;;;;;;15.89;59.90;99565.66;2086038;28;19968;-64
2023/12/29 01:35:36;;;;;;;;;;;;;;;15.87;60.00;99560.44;2089575;28;20392;-63
2023/12/29 01:36:38;;;;;;;;;;;;;;;15.84;60.07;99564.28;2091529;28;19931;-63
2023/12/29 01:37:39;;;;;;;;;;;;;;;15.88;59.96;99563.97;2090737;28;19939;-63
2023/12/29 01:38:40;;;;;;;;;;;;;;;15.86;60.03;99564.13;2089328;28;20913;-62
2023/12/29 01:39:41;;;;;;;;;;;;;;;15.84;59.96;99558.94;2088966;28;19933;-64
2023/12/29 01:40:45;;;;;;;;;;;;;;;15.85;59.95;99559.78;2091134;28;20640;-63
2023/12/29 01:41:46;;;;;;;;;;;;;;;15.82;59.95;99560.97;2089592;28;19932;-63
2023/12/29 01:42:47;;;;;;;;;;;;;;;15.83;60.04;99554.59;2089741;28;20014;-64
2023/12/29 01:44:13;;;;;;;;;;;;;;;15.83;59.97;99557.28;2090318;28;20529;-63
2023/12/29 01:45:21;;;;;;;;;;;;;;;15.83;59.92;99557.28;2089636;28;20399;-63
2023/12/29 01:46:23;;;;;;;;;;;;;;;15.85;59.86;99559.78;2087762;28;20363;-64
2023/12/29 01:47:24;;;;;;;;;;;;;;;15.81;59.93;99553.09;2091245;28;19928;-63
2023/12/29 01:48:25;;;;;;;;;;;;;;;15.81;59.98;99558.44;2089795;28;20419;-63
2023/12/29 01:49:27;;;;;;;;;;;;;;;15.82;59.92;99555.63;2088873;28;19954;-63
2023/12/29 01:50:29;;;;;;;;;;;;;;;15.81;59.93;99559.25;2089673;28;19935;-63
2023/12/29 01:51:30;;;;;;;;;;;;;;;15.79;59.88;99560.44;2090441;28;21034;-64
2023/12/29 01:52:32;;;;;;;;;;;;;;;15.80;59.95;99554.94;2089246;28;19932;-62
2023/12/29 01:53:32;;;;;;;;;;;;;;;15.80;59.95;99559.44;2090552;28;19932;-63
2023/12/29 01:54:37;;;;;;;;;;;;;;;15.78;59.84;99556.91;2088553;28;19979;-63
2023/12/29 01:55:38;;;;;;;;;;;;;;;15.76;59.98;99556.25;2087598;28;19932;-63
2023/12/29 01:56:39;;;;;;;;;;;;;;;15.78;59.95;99559.59;2092402;28;20968;-62
2023/12/29 01:57:41;;;;;;;;;;;;;;;15.80;59.83;99554.09;2092370;28;21596;-63
2023/12/29 01:58:41;;;;;;;;;;;;;;;15.78;59.88;99551.56;2091897;28;19932;-63
2023/12/29 01:59:45;;;;;;;;;;;;;;;15.78;59.85;99558.75;2090389;28;19983;-63
2023/12/29 02:00:45;;;;;;;;;;;;;;;15.79;59.87;99560.44;2089101;28;20065;-62
2023/12/29 02:01:48;;;;;;;;;;;;;;;15.76;59.88;99550.88;2091810;28;19929;-63
2023/12/29 02:02:49;;;;;;;;;;;;;;;15.73;59.94;99553.88;2089059;28;19929;-63
2023/12/29 02:03:51;;;;;;;;;;;;;;;15.74;59.88;99563.59;2091910;28;20359;-63
2023/12/29 02:04:51;;;;;;;;;;;;;;;15.75;59.92;99554.56;2087186;28;19925;-63
2023/12/29 02:05:54;;;;;;;;;;;;;;;15.74;59.91;99560.94;2087607;28;19925;-62
2023/12/29 02:06:55;;;;;;;;;;;;;;;15.74;59.93;99552.03;2089114;28;19929;-65
2023/12/29 02:07:57;;;;;;;;;;;;;;;15.74;59.97;99552.91;2089080;28;19971;-63
2023/12/29 02:08:58;;;;;;;;;;;;;;;15.72;59.86;99552.22;2089032;28;19929;-63
2023/12/29 02:10:00;;;;;;;;;;;;;;;15.73;59.91;99551.22;2089518;28;19924;-64
2023/12/29 02:11:00;;;;;;;;;;;;;;;15.72;59.93;99546.88;2089211;28;20012;-62
2023/12/29 02:12:03;;;;;;;;;;;;;;;15.71;59.86;99558.59;2090762;28;19999;-63
2023/12/29 02:13:04;;;;;;;;;;;;;;;15.69;59.96;99547.22;2089357;28;19925;-63
2023/12/29 02:14:04;;;;;;;;;;;;;;;15.69;59.97;99547.22;2092098;28;19952;-63
2023/12/29 02:15:06;;;;;;;;;;;;;;;15.68;59.84;99548.19;2086839;28;20399;-63
2023/12/29 02:16:09;;;;;;;;;;;;;;;15.68;59.94;99550.00;2091070;28;19928;-63
2023/12/29 02:17:17;;;;;;;;;;;;;;;15.69;59.87;99543.69;2089767;28;20563;-62
2023/12/29 02:18:18;;;;;;;;;;;;;;;15.67;59.89;99548.34;2088936;28;19928;-63
2023/12/29 02:19:25;;;;;;;;;;;;;;;15.66;59.93;99539.47;2089545;28;19924;-63
2023/12/29 02:20:27;;;;;;;;;;;;;;;15.68;59.92;99541.97;2087702;28;19931;-63
2023/12/29 02:21:27;;;;;;;;;;;;;;;15.67;59.97;99543.81;2088482;28;20288;-63
2023/12/29 02:22:29;;;;;;;;;;;;;;;15.67;59.88;99542.97;2087121;28;19936;-62
2023/12/29 02:23:29;;;;;;;;;;;;;;;15.64;59.93;99544.97;2089328;28;20037;-63
2023/12/29 02:24:30;;;;;;;;;;;;;;;15.63;59.94;99539.81;2088120;28;20015;-62
2023/12/29 02:25:33;;;;;;;;;;;;;;;15.62;60.02;99544.28;2092100;28;19932;-62
2023/12/29 02:26:36;;;;;;;;;;;;;;;15.62;59.97;99544.28;2090083;28;20147;-63
2023/12/29 02:27:44;;;;;;;;;;;;;;;15.61;59.88;99541.78;2092001;28;19932;-63
2023/12/29 02:28:47;;;;;;;;;;;;;;;15.62;60.04;99544.28;2089450;28;20979;-63
2023/12/29 02:29:50;;;;;;;;;;;;;;;15.61;60.03;99544.47;2088806;28;20383;-63
2023/12/29 02:30:56;;;;;;;;;;;;;;;15.62;59.92;99543.47;2086626;28;19960;-62
2023/12/29 02:31:59;;;;;;;;;;;;;;;15.60;59.96;99546.31;2089545;28;19932;-63
2023/12/29 02:33:01;;;;;;;;;;;;;;;15.58;60.02;99542.13;2090015;28;19935;-63
2023/12/29 02:34:03;;;;;;;;;;;;;;;15.59;59.99;99546.47;2086965;28;20302;-62
2023/12/29 02:35:07;;;;;;;;;;;;;;;15.57;59.85;99541.28;2087593;28;20436;-62
2023/12/29 02:36:07;;;;;;;;;;;;;;;15.57;59.93;99540.44;2091870;28;19982;-63
2023/12/29 02:37:10;;;;;;;;;;;;;;;15.57;60.00;99543.09;2091432;28;19982;-63
2023/12/29 02:38:11;;;;;;;;;;;;;;;15.57;60.01;99543.97;2088344;28;19928;-63
2023/12/29 02:39:12;;;;;;;;;;;;;;;15.57;59.98;99543.09;2090125;28;20011;-62
2023/12/29 02:40:14;;;;;;;;;;;;;;;15.57;59.97;99529.72;2088942;28;19931;-63
2023/12/29 02:41:17;;;;;;;;;;;;;;;15.57;59.98;99532.41;2088702;28;20038;-65
2023/12/29 02:42:17;;;;;;;;;;;;;;;15.56;59.99;99538.75;2091406;28;19929;-63
2023/12/29 02:43:19;;;;;;;;;;;;;;;15.55;59.91;99537.94;2088697;28;19932;-63
2023/12/29 02:44:20;;;;;;;;;;;;;;;15.56;59.91;99536.09;2088511;28;19931;-63
2023/12/29 02:45:21;;;;;;;;;;;;;;;15.56;59.94;99536.09;2091025;28;19983;-63
2023/12/29 02:46:22;;;;;;;;;;;;;;;15.54;60.00;99538.91;2087639;28;19932;-63
2023/12/29 02:47:22;;;;;;;;;;;;;;;15.54;60.00;99535.41;2086515;28;20063;-63
2023/12/29 02:48:24;;;;;;;;;;;;;;;15.54;59.96;99533.56;2087884;28;20038;-63
2023/12/29 02:49:26;;;;;;;;;;;;;;;15.51;60.08;99525.03;2085662;28;19925;-62
2023/12/29 02:50:27;;;;;;;;;;;;;;;15.50;60.13;99526.88;2087409;28;19928;-62
2023/12/29 02:51:28;;;;;;;;;;;;;;;15.50;59.90;99523.38;2090479;28;20442;-63
2023/12/29 02:52:29;;;;;;;;;;;;;;;15.52;59.90;99518.72;2087953;28;19963;-63
2023/12/29 02:53:30;;;;;;;;;;;;;;;15.50;59.99;99523.38;2092827;28;19932;-62
2023/12/29 02:54:32;;;;;;;;;;;;;;;15.49;59.94;99521.69;2089660;28;20016;-62
2023/12/29 02:55:32;;;;;;;;;;;;;;;15.51;59.90;99525.03;2089388;28;19982;-62
2023/12/29 02:56:36;;;;;;;;;;;;;;;15.49;60.01;99527.88;2089510;28;20033;-64
2023/12/29 02:57:36;;;;;;;;;;;;;;;15.47;59.93;99524.53;2090075;28;19932;-63
2023/12/29 02:58:37;;;;;;;;;;;;;;;15.48;60.04;99523.53;2089403;28;20804;-62
2023/12/29 02:59:38;;;;;;;;;;;;;;;15.47;59.99;99524.53;2088433;28;19952;-63
2023/12/29 03:00:39;;;;;;;;;;;;;;;15.46;59.97;99527.34;2091576;28;19932;-62
2023/12/29 03:01:40;;;;;;;;;;;;;;;15.46;60.03;99525.53;2092056;28;19979;-62
2023/12/29 03:02:41;;;;;;;;;;;;;;;15.46;59.96;99522.88;2090920;28;20241;-64
2023/12/29 03:03:42;;;;;;;;;;;;;;;15.46;59.91;99520.19;2088501;28;19944;-64
2023/12/29 03:04:42;;;;;;;;;;;;;;;15.44;59.95;99522.19;2091173;28;20371;-63
2023/12/29 03:05:44;;;;;;;;;;;;;;;15.44;60.09;99521.34;2087882;28;19963;-63
2023/12/29 03:06:44;;;;;;;;;;;;;;;15.46;59.90;99519.34;2089962;28;19971;-63
2023/12/29 03:07:46;;;;;;;;;;;;;;;15.46;59.92;99522.00;2087404;28;20400;-62
2023/12/29 03:08:47;;;;;;;;;;;;;;;15.45;59.96;99521.19;2089384;28;19932;-62
2023/12/29 03:09:48;;;;;;;;;;;;;;;15.41;59.92;99518.00;2088110;28;19960;-63
2023/12/29 03:10:49;;;;;;;;;;;;;;;15.42;60.01;99516.16;2087391;28;19924;-63
2023/12/29 03:11:51;;;;;;;;;;;;;;;15.42;59.99;99516.97;2091393;28;19924;-63
2023/12/29 03:12:52;;;;;;;;;;;;;;;15.43;59.93;99520.50;2087953;28;19960;-64
2023/12/29 03:13:53;;;;;;;;;;;;;;;15.41;59.87;99519.84;2088654;28;20391;-63
2023/12/29 03:14:55;;;;;;;;;;;;;;;15.40;60.00;99513.63;2092296;28;19929;-61
2023/12/29 03:15:55;;;;;;;;;;;;;;;15.40;60.07;99508.28;2087281;28;19966;-62
2023/12/29 03:16:57;;;;;;;;;;;;;;;15.40;59.91;99516.31;2089791;28;21318;-64
2023/12/29 03:17:57;;;;;;;;;;;;;;;15.41;59.89;99515.31;2090841;28;19973;-64
2023/12/29 03:18:59;;;;;;;;;;;;;;;15.40;59.97;99516.31;2089460;28;20375;-63
2023/12/29 03:19:59;;;;;;;;;;;;;;;15.41;59.97;99520.66;2087327;28;20350;-63
2023/12/29 03:21:00;;;;;;;;;;;;;;;15.42;59.97;99521.50;2088334;28;20023;-63
2023/12/29 03:22:02;;;;;;;;;;;;;;;15.42;59.93;99510.81;2091765;28;19944;-63
2023/12/29 03:23:02;;;;;;;;;;;;;;;15.40;59.98;99504.78;2090994;28;19959;-63
2023/12/29 03:24:04;;;;;;;;;;;;;;;15.38;60.02;99515.66;2087015;28;19933;-61
2023/12/29 03:25:05;;;;;;;;;;;;;;;15.40;59.93;99504.78;2085743;28;20376;-63
2023/12/29 03:26:07;;;;;;;;;;;;;;;15.37;59.92;99508.59;2089679;28;19929;-60
2023/12/29 03:27:09;;;;;;;;;;;;;;;15.40;59.94;99512.78;2090019;28;19932;-64
2023/12/29 03:28:10;;;;;;;;;;;;;;;15.39;60.03;99513.81;2090409;28;22989;-63
2023/12/29 03:29:11;;;;;;;;;;;;;;;15.39;60.00;99509.28;2088539;28;19925;-64
2023/12/29 03:30:13;;;;;;;;;;;;;;;15.38;60.02;99512.16;2092184;28;19963;-63
2023/12/29 03:31:13;;;;;;;;;;;;;;;15.38;59.99;99510.31;2093077;28;19933;-63
2023/12/29 03:32:15;;;;;;;;;;;;;;;15.37;59.91;99508.59;2091188;28;19971;-64
2023/12/29 03:33:16;;;;;;;;;;;;;;;15.36;60.12;99511.47;2089592;28;19932;-62
2023/12/29 03:34:16;;;;;;;;;;;;;;;15.34;60.18;99508.94;2090815;28;20121;-64
2023/12/29 03:35:18;;;;;;;;;;;;;;;15.36;60.02;99506.13;2091478;28;19928;-63
2023/12/29 03:36:19;;;;;;;;;;;;;;;15.35;60.05;99507.97;2091695;28;19939;-63
2023/12/29 03:37:20;;;;;;;;;;;;;;;15.36;60.03;99500.78;2090927;28;19960;-62
2023/12/29 03:38:21;;;;;;;;;;;;;;;15.35;60.03;99502.59;2093148;28;19936;-62
2023/12/29 03:39:23;;;;;;;;;;;;;;;15.37;59.93;99503.25;2089191;28;19967;-63
2023/12/29 03:40:24;;;;;;;;;;;;;;;15.37;59.97;99500.59;2089154;28;19935;-63
2023/12/29 03:41:25;;;;;;;;;;;;;;;15.36;60.12;99500.78;2091535;28;19925;-63
2023/12/29 03:42:27;;;;;;;;;;;;;;;15.36;60.05;99492.75;2092468;28;19931;-63
2023/12/29 03:43:28;;;;;;;;;;;;;;;15.36;60.05;99495.41;2090230;28;19968;-63
2023/12/29 03:44:29;;;;;;;;;;;;;;;15.36;60.03;99490.06;2088302;28;19929;-62
2023/12/29 03:45:30;;;;;;;;;;;;;;;15.33;60.13;99490.41;2089369;28;19935;-63
2023/12/29 03:46:32;;;;;;;;;;;;;;;15.34;60.01;99498.25;2092489;28;20019;-63
2023/12/29 03:47:33;;;;;;;;;;;;;;;15.35;60.04;99494.59;2090276;28;20015;-63
2023/12/29 03:48:34;;;;;;;;;;;;;;;15.33;60.11;99482.38;2092191;28;19933;-63
2023/12/29 03:49:35;;;;;;;;;;;;;;;15.36;59.95;99484.72;2089800;28;19928;-63
2023/12/29 03:50:36;;;;;;;;;;;;;;;15.34;60.12;99486.72;2088422;28;19956;-62
2023/12/29 03:51:37;;;;;;;;;;;;;;;15.32;60.06;99484.22;2088380;28;19932;-61
2023/12/29 03:52:39;;;;;;;;;;;;;;;15.32;60.04;99476.22;2088307;28;20016;-61
2023/12/29 03:53:39;;;;;;;;;;;;;;;15.33;60.19;99483.22;2091744;28;20350;-61
2023/12/29 03:54:41;;;;;;;;;;;;;;;15.33;60.01;99485.88;2090331;28;19928;-61
2023/12/29 03:55:42;;;;;;;;;;;;;;;15.34;59.97;99481.38;2089881;28;19925;-63
2023/12/29 03:56:43;;;;;;;;;;;;;;;15.33;60.01;99474.38;2093842;28;20432;-62
2023/12/29 03:57:45;;;;;;;;;;;;;;;15.32;60.03;99478.00;2092755;28;19925;-61
2023/12/29 03:58:47;;;;;;;;;;;;;;;15.34;59.96;99478.69;2090937;28;19968;-62
2023/12/29 03:59:48;;;;;;;;;;;;;;;15.35;59.89;99478.56;2089329;28;20438;-63
2023/12/29 04:00:49;;;;;;;;;;;;;;;15.34;60.05;99482.22;2085797;28;20019;-62
2023/12/29 04:01:50;;;;;;;;;;;;;;;15.33;60.04;99479.72;2091829;28;19929;-62
2023/12/29 04:02:51;;;;;;;;;;;;;;;15.33;60.01;99483.22;2089008;28;20004;-64
2023/12/29 04:03:52;;;;;;;;;;;;;;;15.33;60.10;99483.22;2089267;28;19931;-63
2023/12/29 04:04:52;;;;;;;;;;;;;;;15.32;60.01;99484.22;2091278;28;19968;-63
2023/12/29 04:05:54;;;;;;;;;;;;;;;15.31;60.02;99485.22;2090030;28;19931;-63
2023/12/29 04:06:55;;;;;;;;;;;;;;;15.30;60.24;99482.72;2089278;28;20414;-60
2023/12/29 04:07:55;;;;;;;;;;;;;;;15.31;60.00;99490.56;2092109;28;19928;-63
2023/12/29 04:08:57;;;;;;;;;;;;;;;15.31;59.92;99482.53;2090952;28;19971;-63
2023/12/29 04:09:57;;;;;;;;;;;;;;;15.33;60.00;99482.38;2090399;28;19947;-62
2023/12/29 04:10:58;;;;;;;;;;;;;;;15.32;60.02;99478.00;2089104;28;20003;-62
2023/12/29 04:12:00;;;;;;;;;;;;;;;15.36;60.00;99484.72;2084204;28;20015;-62
2023/12/29 04:13:02;;;;;;;;;;;;;;;15.38;59.92;99480.91;2089752;28;20739;-63
2023/12/29 04:14:03;;;;;;;;;;;;;;;15.44;59.69;99481.25;2089936;28;20308;-62
2023/12/29 04:15:04;;;;;;;;;;;;;;;15.49;59.64;99484.25;2089568;28;19936;-62
2023/12/29 04:16:06;;;;;;;;;;;;;;;15.52;59.63;99474.09;2089712;28;20027;-63
2023/12/29 04:17:13;;;;;;;;;;;;;;;15.56;59.47;99477.25;2088663;28;19936;-61
2023/12/29 04:18:14;;;;;;;;;;;;;;;15.59;59.51;99479.63;2092494;28;19928;-62
2023/12/29 04:19:15;;;;;;;;;;;;;;;15.63;59.38;99478.31;2091707;28;20004;-62
2023/12/29 04:20:16;;;;;;;;;;;;;;;15.67;59.33;99490.31;2091660;28;20304;-63
2023/12/29 04:21:17;;;;;;;;;;;;;;;15.71;59.25;99480.16;2089665;28;19968;-63
2023/12/29 04:22:18;;;;;;;;;;;;;;;15.74;59.20;99486.03;2087779;28;20306;-62
2023/12/29 04:23:20;;;;;;;;;;;;;;;15.77;59.25;99483.03;2091230;28;19971;-61
2023/12/29 04:24:20;;;;;;;;;;;;;;;15.78;59.14;99482.03;2087483;28;19932;-63
2023/12/29 04:25:22;;;;;;;;;;;;;;;15.82;59.14;99483.38;2087290;28;20425;-62
2023/12/29 04:26:23;;;;;;;;;;;;;;;15.86;59.05;99481.22;2089274;28;19924;-63
2023/12/29 04:27:24;;;;;;;;;;;;;;;15.88;58.95;99481.03;2088918;28;20004;-64
2023/12/29 04:28:26;;;;;;;;;;;;;;;15.91;59.01;99481.56;2087124;28;19964;-63
2023/12/29 04:29:27;;;;;;;;;;;;;;;15.92;58.95;99475.19;2087939;28;20303;-63
2023/12/29 04:30:28;;;;;;;;;;;;;;;15.94;58.97;99475.88;2089847;28;19932;-62
2023/12/29 04:31:29;;;;;;;;;;;;;;;15.96;58.85;99476.50;2090358;28;20403;-63
2023/12/29 04:32:31;;;;;;;;;;;;;;;15.97;58.96;99478.22;2088036;28;19925;-62
2023/12/29 04:33:31;;;;;;;;;;;;;;;16.00;58.83;99477.88;2092504;28;19925;-63
2023/12/29 04:34:33;;;;;;;;;;;;;;;16.00;58.89;99472.53;2089531;28;20024;-62
2023/12/29 04:35:33;;;;;;;;;;;;;;;16.04;58.83;99483.72;2088763;28;19986;-64
2023/12/29 04:36:35;;;;;;;;;;;;;;;16.05;58.93;99480.91;2092139;28;19977;-64
2023/12/29 04:37:36;;;;;;;;;;;;;;;16.07;58.87;99475.34;2090413;28;19935;-64
2023/12/29 04:38:37;;;;;;;;;;;;;;;16.08;58.84;99474.38;2088309;28;19971;-63
2023/12/29 04:39:38;;;;;;;;;;;;;;;16.09;58.77;99471.53;2087443;28;19929;-63
2023/12/29 04:40:39;;;;;;;;;;;;;;;16.12;58.84;99474.88;2090655;28;19970;-65
2023/12/29 04:41:40;;;;;;;;;;;;;;;16.13;58.86;99465.81;2091790;28;21020;-63
2023/12/29 04:42:42;;;;;;;;;;;;;;;16.13;58.89;99464.00;2087156;28;20382;-61
2023/12/29 04:43:44;;;;;;;;;;;;;;;16.16;58.76;99465.50;2092880;28;19946;-64
2023/12/29 04:44:45;;;;;;;;;;;;;;;16.17;58.82;99462.66;2090490;28;20699;-61
2023/12/29 04:45:46;;;;;;;;;;;;;;;16.20;58.92;99464.16;2091900;28;19929;-61
2023/12/29 04:46:47;;;;;;;;;;;;;;;16.21;58.75;99469.34;2089316;28;20789;-63
2023/12/29 04:47:49;;;;;;;;;;;;;;;16.22;58.94;99462.16;2090378;28;19964;-64
2023/12/29 04:48:49;;;;;;;;;;;;;;;16.23;58.85;99467.34;2090838;28;19935;-63
2023/12/29 04:49:51;;;;;;;;;;;;;;;16.25;58.71;99467.19;2089041;28;20533;-61
2023/12/29 04:50:52;;;;;;;;;;;;;;;16.26;58.78;99463.50;2090536;28;20443;-63
2023/12/29 04:51:53;;;;;;;;;;;;;;;16.28;58.79;99467.66;2093297;28;20035;-64
2023/12/29 04:52:54;;;;;;;;;;;;;;;16.28;58.75;99462.31;2090558;28;19925;-64
2023/12/29 04:53:55;;;;;;;;;;;;;;;16.31;58.74;99463.81;2092162;28;19967;-64
2023/12/29 04:54:56;;;;;;;;;;;;;;;16.33;58.78;99463.66;2090346;28;19924;-63
2023/12/29 04:55:57;;;;;;;;;;;;;;;16.34;58.78;99465.34;2089251;28;19932;-61
2023/12/29 04:56:58;;;;;;;;;;;;;;;16.35;58.87;99458.97;2091769;28;19932;-63
2023/12/29 04:58:00;;;;;;;;;;;;;;;16.37;58.80;99457.78;2088894;28;19960;-63
2023/12/29 04:59:02;;;;;;;;;;;;;;;16.37;58.77;99457.78;2087148;28;19939;-63
2023/12/29 05:00:04;;;;;;;;;;;;;;;16.39;58.73;99463.00;2091180;28;19972;-62
2023/12/29 05:01:05;;;;;;;;;;;;;;;16.39;58.74;99457.63;2091636;28;20011;-62
2023/12/29 05:02:06;;;;;;;;;;;;;;;16.41;58.83;99466.31;2089894;28;19939;-62
2023/12/29 05:03:08;;;;;;;;;;;;;;;16.43;58.67;99461.63;2087222;28;20007;-64
2023/12/29 05:04:08;;;;;;;;;;;;;;;16.43;58.89;99461.63;2088533;28;19933;-63
2023/12/29 05:05:10;;;;;;;;;;;;;;;16.46;58.74;99463.97;2088739;28;19960;-62
2023/12/29 05:06:11;;;;;;;;;;;;;;;16.48;58.77;99464.66;2088534;28;19975;-63
2023/12/29 05:07:12;;;;;;;;;;;;;;;16.47;58.79;99455.78;2088876;28;19925;-62
2023/12/29 05:08:13;;;;;;;;;;;;;;;16.46;58.71;99443.38;2092753;28;20303;-63
2023/12/29 05:09:14;;;;;;;;;;;;;;;16.49;58.59;99458.28;2091580;28;19955;-62
2023/12/29 05:10:15;;;;;;;;;;;;;;;16.49;58.81;99451.09;2087968;28;19928;-63
2023/12/29 05:11:17;;;;;;;;;;;;;;;16.51;58.74;99458.94;2090468;28;20003;-63
2023/12/29 05:12:17;;;;;;;;;;;;;;;16.50;58.84;99465.31;2091746;28;19936;-64
2023/12/29 05:13:19;;;;;;;;;;;;;;;16.51;58.83;99453.59;2093368;28;19984;-62
2023/12/29 05:14:21;;;;;;;;;;;;;;;16.51;58.78;99459.78;2089405;28;19935;-64
2023/12/29 05:15:22;;;;;;;;;;;;;;;16.51;58.81;99458.94;2089937;28;19964;-64
2023/12/29 05:16:23;;;;;;;;;;;;;;;16.50;58.82;99462.63;2092566;28;19932;-63
2023/12/29 05:17:24;;;;;;;;;;;;;;;16.51;58.88;99458.94;2091078;28;20359;-62
2023/12/29 05:18:26;;;;;;;;;;;;;;;16.51;58.89;99453.59;2090838;28;19925;-63
2023/12/29 05:19:28;;;;;;;;;;;;;;;16.52;58.87;99449.94;2082526;28;19970;-61
2023/12/29 05:20:28;;;;;;;;;;;;;;;16.50;58.98;99458.13;2083333;28;19924;-63